createdAt,value
2017-11-08T00:01:34.623Z,96382.28
2017-11-08T00:04:32.538Z,96384.17
2017-11-08T00:07:29.665Z,96383.86
2017-11-08T00:17:20.151Z,96394.55
2017-11-08T00:20:09.730Z,96390.16
2017-11-08T00:23:07.500Z,96389.22
2017-11-08T00:38:58.386Z,96376.14
2017-11-08T00:41:47.615Z,96363.47
2017-11-08T00:44:44.616Z,96347.34
2017-11-08T00:47:41.791Z,96332.66
2017-11-08T00:50:38.919Z,96324.96
2017-11-08T00:53:36.739Z,96322.65
2017-11-08T00:56:33.898Z,96334.06
2017-11-08T01:15:55.404Z,96356.69
2017-11-08T01:18:52.536Z,96362.20
2017-11-08T01:21:49.460Z,96355.42
2017-11-08T01:40:59.014Z,96347.98
2017-11-08T01:46:46.596Z,96355.92
2017-11-08T01:49:37.093Z,96351.03
2017-11-08T02:08:48.467Z,96342.30
2017-11-08T02:11:37.526Z,96346.03
2017-11-08T02:14:34.736Z,96347.52
2017-11-08T02:17:31.699Z,96350.47
2017-11-08T02:30:16.525Z,96349.00
2017-11-08T02:33:06.089Z,96347.23
2017-11-08T02:36:03.850Z,96350.47
2017-11-08T02:39:01.190Z,96354.18
2017-11-08T02:51:58.399Z,96349.50
2017-11-08T02:54:48.074Z,96341.52
2017-11-08T02:57:44.820Z,96353.22
2017-11-08T03:00:42.249Z,96347.79
2017-11-08T03:03:40.114Z,96344.45
2017-11-08T03:06:37.160Z,96350.84
2017-11-08T03:09:34.469Z,96351.53
2017-11-08T03:12:31.487Z,96340.79
2017-11-08T03:14:57.244Z,96337.80
2017-11-08T03:34:33.075Z,96347.28
2017-11-08T03:36:58.869Z,96346.43
2017-11-08T03:56:35.440Z,96354.50
2017-11-08T03:59:01.244Z,96350.20
2017-11-08T04:18:37.131Z,96347.52
2017-11-08T04:21:02.922Z,96352.31
2017-11-08T04:23:52.675Z,96351.55
2017-11-08T04:26:49.847Z,96355.11
2017-11-08T04:29:46.826Z,96361.23
2017-11-08T04:42:34.948Z,96352.94
2017-11-08T04:45:24.714Z,96348.58
2017-11-08T05:04:36.273Z,96352.86
2017-11-08T05:07:26.066Z,96360.40
2017-11-08T05:26:39.287Z,96372.83
2017-11-08T05:29:29.011Z,96371.28
2017-11-08T05:32:26.159Z,96379.53
2017-11-08T05:35:23.015Z,96378.67
2017-11-08T05:48:08.523Z,96392.50
2017-11-08T05:50:58.324Z,96389.77
2017-11-08T05:53:55.226Z,96390.64
2017-11-08T06:13:06.280Z,96409.68
2017-11-08T06:32:18.261Z,96415.41
2017-11-08T06:35:07.142Z,96421.52
2017-11-08T06:54:18.307Z,96437.89
2017-11-08T06:57:07.744Z,96444.98
2017-11-08T07:00:04.974Z,96439.27
2017-11-08T07:15:56.833Z,96457.31
2017-11-08T07:18:46.740Z,96453.20
2017-11-08T07:21:43.884Z,96449.75
2017-11-08T07:24:40.916Z,96460.28
2017-11-08T07:27:37.744Z,96465.03
2017-11-08T07:30:35.592Z,96466.63
2017-11-08T07:33:32.544Z,96468.67
2017-11-08T07:36:29.572Z,96470.33
2017-11-08T07:38:55.364Z,96465.39
2017-11-08T07:41:44.470Z,96472.98
2017-11-08T07:44:41.587Z,96470.02
2017-11-08T08:00:32.484Z,96483.50
2017-11-08T08:03:22.504Z,96486.55
2017-11-08T08:22:34.637Z,96495.06
2017-11-08T08:42:10.032Z,96499.20
2017-11-08T08:44:35.807Z,96503.14
2017-11-08T09:04:12.135Z,96522.52
2017-11-08T09:06:37.915Z,96525.42
2017-11-08T09:09:27.879Z,96526.27
2017-11-08T09:12:24.902Z,96530.11
2017-11-08T09:28:17.109Z,96539.24
2017-11-08T09:31:06.205Z,96542.38
2017-11-08T09:34:03.513Z,96546.52
2017-11-08T09:37:00.530Z,96556.33
2017-11-08T09:39:58.521Z,96561.13
2017-11-08T09:42:56.268Z,96566.79
2017-11-08T09:45:53.200Z,96560.95
2017-11-08T09:48:50.370Z,96556.87
2017-11-08T09:51:16.237Z,96566.18
2017-11-08T09:54:05.540Z,96565.70
2017-11-08T10:13:18.174Z,96561.05
2017-11-08T10:32:55.247Z,96560.16
2017-11-08T10:35:21.064Z,96555.28
2017-11-08T10:38:10.734Z,96564.36
2017-11-08T10:41:07.682Z,96563.09
2017-11-08T10:44:04.598Z,96568.70
2017-11-08T10:47:02.130Z,96573.22
2017-11-08T10:56:53.011Z,96567.30
2017-11-08T10:59:48.996Z,96569.20
2017-11-08T11:02:46.687Z,96566.92
2017-11-08T11:05:44.501Z,96574.41
2017-11-08T11:08:41.470Z,96576.73
2017-11-08T11:11:38.623Z,96573.38
2017-11-08T11:14:36.432Z,96578.25
2017-11-08T11:20:24.129Z,96577.00
2017-11-08T11:23:13.988Z,96580.41
2017-11-08T11:26:11.248Z,96577.27
2017-11-08T11:29:09.388Z,96585.13
2017-11-08T11:32:06.597Z,96581.42
2017-11-08T11:35:04.573Z,96584.55
2017-11-08T11:38:01.812Z,96582.62
2017-11-08T11:40:59.034Z,96575.69
2017-11-08T12:00:10.209Z,96577.20
2017-11-08T12:03:07.920Z,96575.69
2017-11-08T12:22:18.608Z,96603.30
2017-11-08T12:25:15.842Z,96600.66
2017-11-08T12:27:43.628Z,96600.81
2017-11-08T12:30:33.178Z,96602.66
2017-11-08T12:33:29.984Z,96610.50
2017-11-08T12:36:27.056Z,96612.21
2017-11-08T12:39:24.004Z,96613.84
2017-11-08T12:49:14.405Z,96608.42
2017-11-08T13:08:50.690Z,96630.73
2017-11-08T13:11:22.513Z,96636.66
2017-11-08T13:30:57.871Z,96641.84
2017-11-08T13:50:14.948Z,96656.16
2017-11-08T13:53:11.957Z,96659.73
2017-11-08T13:55:37.780Z,96660.76
2017-11-08T13:58:26.667Z,96664.72
2017-11-08T14:17:39.565Z,96675.41
2017-11-08T14:20:29.121Z,96678.86
2017-11-08T14:39:41.582Z,96693.45
2017-11-08T14:42:30.538Z,96689.80
2017-11-08T14:45:28.608Z,96692.75
2017-11-08T14:48:26.448Z,96696.46
2017-11-08T15:01:12.192Z,96700.77
2017-11-08T15:04:01.640Z,96700.70
2017-11-08T15:23:13.805Z,96720.00
2017-11-08T15:26:03.016Z,96716.61
2017-11-08T15:29:00.158Z,96717.95
2017-11-08T15:31:57.309Z,96717.28
2017-11-08T15:34:55.285Z,96720.00
2017-11-08T15:44:45.194Z,96731.37
2017-11-08T16:04:24.295Z,96745.44
2017-11-08T16:06:50.051Z,96745.77
2017-11-08T16:09:39.785Z,96753.09
2017-11-08T16:12:36.977Z,96752.76
2017-11-08T16:18:55.488Z,96749.08
2017-11-08T16:21:53.304Z,96747.93
2017-11-08T16:24:50.334Z,96741.23
2017-11-08T16:44:01.072Z,96741.70
2017-11-08T16:53:09.715Z,96759.86
2017-11-08T16:55:59.495Z,96759.55
2017-11-08T16:58:57.050Z,96763.68
2017-11-08T17:01:53.807Z,96759.09
2017-11-08T17:04:50.865Z,96767.39
2017-11-08T17:07:47.652Z,96773.19
2017-11-08T17:10:45.565Z,96767.56
2017-11-08T17:13:50.558Z,96770.47
2017-11-08T17:16:16.364Z,96773.72
2017-11-08T17:19:06.217Z,96772.66
2017-11-08T17:38:18.785Z,96794.89
2017-11-08T17:41:08.663Z,96793.48
2017-11-08T17:44:05.812Z,96791.31
2017-11-08T17:59:55.628Z,96796.01
2017-11-08T18:02:45.739Z,96792.72
2017-11-08T18:21:58.784Z,96805.79
2017-11-08T18:24:47.872Z,96808.33
2017-11-08T18:27:45.104Z,96810.70
2017-11-08T18:30:42.046Z,96816.21
2017-11-08T18:33:38.901Z,96814.05
2017-11-08T18:43:28.920Z,96822.56
2017-11-08T19:03:04.183Z,96833.46
2017-11-08T19:05:29.956Z,96827.64
2017-11-08T19:08:18.758Z,96833.03
2017-11-08T19:11:16.493Z,96836.11
2017-11-08T19:14:14.320Z,96834.23
2017-11-08T19:27:01.482Z,96846.19
2017-11-08T19:29:51.091Z,96864.59
2017-11-08T19:49:03.380Z,96871.28
2017-11-08T19:51:52.345Z,96866.91
2017-11-08T19:54:49.203Z,96864.20
2017-11-08T19:57:47.036Z,96869.02
2017-11-08T20:00:44.096Z,96875.27
2017-11-08T20:03:42.078Z,96866.64
2017-11-08T20:06:39.818Z,96867.28
2017-11-08T20:09:43.695Z,96870.42
2017-11-08T20:28:59.625Z,96889.09
2017-11-08T20:31:57.322Z,96890.31
2017-11-08T20:51:07.153Z,96900.25
2017-11-08T20:54:04.850Z,96901.17
2017-11-08T21:13:12.583Z,96902.62
2017-11-08T21:16:09.634Z,96906.40
2017-11-08T21:35:15.452Z,96893.94
2017-11-08T21:54:27.134Z,96915.30
2017-11-08T22:13:38.568Z,96916.36
2017-11-08T22:16:35.635Z,96907.51
2017-11-08T22:19:32.621Z,96920.67
2017-11-08T22:22:29.693Z,96915.83
2017-11-08T22:25:37.359Z,96922.13
2017-11-08T22:45:13.464Z,96935.20
2017-11-08T22:47:39.247Z,96937.94
2017-11-08T22:50:28.507Z,96945.81
2017-11-08T22:53:26.265Z,96945.13
2017-11-08T23:09:16.705Z,96942.02
2017-11-08T23:12:05.735Z,96935.20
2017-11-08T23:15:02.936Z,96940.50
2017-11-08T23:30:53.636Z,96940.92
2017-11-08T23:33:42.618Z,96933.98
2017-11-08T23:36:40.524Z,96932.52
2017-11-08T23:39:37.591Z,96933.34
2017-11-08T23:42:34.550Z,96934.20
2017-11-08T23:45:31.683Z,96929.56
2017-11-08T23:48:28.625Z,96926.91
2017-11-08T23:51:25.569Z,96930.16
2017-11-08T23:53:51.351Z,96931.17
